sensor_id;sensor_type;location;lat;lon;timestamp;pressure;altitude;pressure_sealevel;temperature;humidity
77469;BME280;68840;50.272;12.818;2023-04-28T00:00:06;96129;;;6.2;50.9
77469;BME280;68840;50.272;12.818;2023-04-28T00:02:05;96126;;;6.2;50.7
77469;BME280;68840;50.272;12.818;2023-04-28T00:04:05;96121;;;6.2;50.7
77469;BME280;68840;50.272;12.818;2023-04-28T00:06:05;96120;;;6.7;49.8
77469;BME280;68840;50.272;12.818;2023-04-28T00:08:05;96118;;;6.8;49.4
77469;BME280;68840;50.272;12.818;2023-04-28T00:10:06;96120;;;6.8;49.4
77469;BME280;68840;50.272;12.818;2023-04-28T00:12:06;96118;;;6.7;49.4
77469;BME280;68840;50.272;12.818;2023-04-28T00:14:05;96120;;;6.8;49.2
77469;BME280;68840;50.272;12.818;2023-04-28T00:16:06;96121;;;6.7;49.4
77469;BME280;68840;50.272;12.818;2023-04-28T00:18:05;96122;;;6.7;49.0
77469;BME280;68840;50.272;12.818;2023-04-28T00:20:06;96121;;;6.7;49.1
77469;BME280;68840;50.272;12.818;2023-04-28T00:22:05;96121;;;6.7;49.1
77469;BME280;68840;50.272;12.818;2023-04-28T00:24:06;96118;;;6.6;49.3
77469;BME280;68840;50.272;12.818;2023-04-28T00:26:05;96117;;;6.7;49.1
77469;BME280;68840;50.272;12.818;2023-04-28T00:28:05;96116;;;6.6;49.3
77469;BME280;68840;50.272;12.818;2023-04-28T00:30:06;96116;;;6.6;49.2
77469;BME280;68840;50.272;12.818;2023-04-28T00:32:05;96113;;;6.6;49.4
77469;BME280;68840;50.272;12.818;2023-04-28T00:34:05;96109;;;6.6;49.4
77469;BME280;68840;50.272;12.818;2023-04-28T00:36:06;96106;;;6.6;49.5
77469;BME280;68840;50.272;12.818;2023-04-28T00:38:05;96101;;;6.6;49.5
77469;BME280;68840;50.272;12.818;2023-04-28T00:40:06;96101;;;6.7;49.5
77469;BME280;68840;50.272;12.818;2023-04-28T00:42:05;96103;;;6.7;49.5
77469;BME280;68840;50.272;12.818;2023-04-28T00:44:05;96104;;;6.7;49.5
77469;BME280;68840;50.272;12.818;2023-04-28T00:46:05;96099;;;6.7;49.5
77469;BME280;68840;50.272;12.818;2023-04-28T00:48:06;96095;;;6.7;49.7
77469;BME280;68840;50.272;12.818;2023-04-28T00:50:06;96092;;;6.8;49.8
77469;BME280;68840;50.272;12.818;2023-04-28T00:52:05;96090;;;6.8;49.5
77469;BME280;68840;50.272;12.818;2023-04-28T00:54:05;96088;;;6.8;49.6
77469;BME280;68840;50.272;12.818;2023-04-28T00:56:06;96084;;;6.8;49.3
77469;BME280;68840;50.272;12.818;2023-04-28T00:58:06;96081;;;6.8;49.5
77469;BME280;68840;50.272;12.818;2023-04-28T01:00:06;96081;;;6.8;49.3
77469;BME280;68840;50.272;12.818;2023-04-28T01:02:06;96077;;;6.8;49.5
77469;BME280;68840;50.272;12.818;2023-04-28T01:04:05;96074;;;6.8;49.3
77469;BME280;68840;50.272;12.818;2023-04-28T01:06:07;96071;;;6.8;49.4
77469;BME280;68840;50.272;12.818;2023-04-28T01:08:06;96071;;;6.8;49.4
77469;BME280;68840;50.272;12.818;2023-04-28T01:10:06;96071;;;6.8;49.4
77469;BME280;68840;50.272;12.818;2023-04-28T01:12:05;96072;;;6.8;49.4
77469;BME280;68840;50.272;12.818;2023-04-28T01:14:05;96071;;;6.8;49.1
77469;BME280;68840;50.272;12.818;2023-04-28T01:16:06;96070;;;6.7;49.2
77469;BME280;68840;50.272;12.818;2023-04-28T01:18:06;96070;;;6.7;49.3
77469;BME280;68840;50.272;12.818;2023-04-28T01:20:06;96069;;;6.7;49.2
77469;BME280;68840;50.272;12.818;2023-04-28T01:22:05;96068;;;6.7;49.1
77469;BME280;68840;50.272;12.818;2023-04-28T01:24:05;96063;;;6.7;49.1
77469;BME280;68840;50.272;12.818;2023-04-28T01:26:05;96060;;;6.7;49.3
77469;BME280;68840;50.272;12.818;2023-04-28T01:28:05;96056;;;6.7;49.4
77469;BME280;68840;50.272;12.818;2023-04-28T01:30:07;96052;;;6.7;49.2
77469;BME280;68840;50.272;12.818;2023-04-28T01:32:05;96050;;;6.7;48.9
77469;BME280;68840;50.272;12.818;2023-04-28T01:34:05;96051;;;6.7;48.9
77469;BME280;68840;50.272;12.818;2023-04-28T01:36:06;96051;;;6.7;49.0
77469;BME280;68840;50.272;12.818;2023-04-28T01:38:05;96051;;;6.7;49.0
77469;BME280;68840;50.272;12.818;2023-04-28T01:40:06;96048;;;6.7;48.9
77469;BME280;68840;50.272;12.818;2023-04-28T01:42:05;96049;;;6.7;49.0
77469;BME280;68840;50.272;12.818;2023-04-28T01:44:06;96050;;;6.6;49.0
77469;BME280;68840;50.272;12.818;2023-04-28T01:46:05;96054;;;6.6;49.2
77469;BME280;68840;50.272;12.818;2023-04-28T01:48:05;96055;;;6.6;49.3
77469;BME280;68840;50.272;12.818;2023-04-28T01:50:06;96056;;;6.6;49.4
77469;BME280;68840;50.272;12.818;2023-04-28T01:52:05;96052;;;6.6;49.4
77469;BME280;68840;50.272;12.818;2023-04-28T01:54:05;96054;;;6.6;49.3
77469;BME280;68840;50.272;12.818;2023-04-28T01:56:05;96054;;;6.6;49.5
77469;BME280;68840;50.272;12.818;2023-04-28T01:58:06;96054;;;6.7;49.5
77469;BME280;68840;50.272;12.818;2023-04-28T02:00:06;96053;;;6.7;49.9
77469;BME280;68840;50.272;12.818;2023-04-28T02:02:05;96051;;;6.7;50.0
77469;BME280;68840;50.272;12.818;2023-04-28T02:04:05;96048;;;6.7;50.1
77469;BME280;68840;50.272;12.818;2023-04-28T02:06:06;96046;;;6.8;50.1
77469;BME280;68840;50.272;12.818;2023-04-28T02:08:05;96045;;;6.8;50.5
77469;BME280;68840;50.272;12.818;2023-04-28T02:10:06;96043;;;6.8;50.2
77469;BME280;68840;50.272;12.818;2023-04-28T02:12:05;96039;;;6.8;50.4
77469;BME280;68840;50.272;12.818;2023-04-28T02:14:06;96037;;;6.9;50.3
77469;BME280;68840;50.272;12.818;2023-04-28T02:16:06;96035;;;6.9;50.3
77469;BME280;68840;50.272;12.818;2023-04-28T02:18:05;96034;;;6.9;50.0
77469;BME280;68840;50.272;12.818;2023-04-28T02:20:06;96035;;;6.9;49.8
77469;BME280;68840;50.272;12.818;2023-04-28T02:22:06;96037;;;6.9;50.3
77469;BME280;68840;50.272;12.818;2023-04-28T02:24:06;96036;;;6.9;50.3
77469;BME280;68840;50.272;12.818;2023-04-28T02:26:05;96036;;;6.9;50.4
77469;BME280;68840;50.272;12.818;2023-04-28T02:28:06;96037;;;6.9;49.9
77469;BME280;68840;50.272;12.818;2023-04-28T02:30:06;96040;;;6.9;49.8
77469;BME280;68840;50.272;12.818;2023-04-28T02:32:06;96039;;;6.9;49.8
77469;BME280;68840;50.272;12.818;2023-04-28T02:34:05;96035;;;6.9;49.9
77469;BME280;68840;50.272;12.818;2023-04-28T02:36:07;96036;;;6.9;50.0
77469;BME280;68840;50.272;12.818;2023-04-28T02:38:05;96031;;;6.9;49.8
77469;BME280;68840;50.272;12.818;2023-04-28T02:40:06;96026;;;6.9;49.7
77469;BME280;68840;50.272;12.818;2023-04-28T02:42:05;96022;;;6.9;50.0
77469;BME280;68840;50.272;12.818;2023-04-28T02:44:05;96019;;;7.0;49.9
77469;BME280;68840;50.272;12.818;2023-04-28T02:46:05;96018;;;7.0;49.8
77469;BME280;68840;50.272;12.818;2023-04-28T02:48:05;96019;;;7.0;50.2
77469;BME280;68840;50.272;12.818;2023-04-28T02:50:07;96021;;;7.0;49.8
77469;BME280;68840;50.272;12.818;2023-04-28T02:52:05;96024;;;7.0;50.0
77469;BME280;68840;50.272;12.818;2023-04-28T02:54:05;96028;;;7.0;50.2
77469;BME280;68840;50.272;12.818;2023-04-28T02:56:05;96029;;;7.0;50.2
77469;BME280;68840;50.272;12.818;2023-04-28T02:58:05;96026;;;7.0;50.5
77469;BME280;68840;50.272;12.818;2023-04-28T03:00:07;96022;;;7.0;50.3
77469;BME280;68840;50.272;12.818;2023-04-28T03:02:05;96023;;;7.0;50.2
77469;BME280;68840;50.272;12.818;2023-04-28T03:04:06;96020;;;7.0;50.6
77469;BME280;68840;50.272;12.818;2023-04-28T03:06:05;96016;;;7.0;50.7
77469;BME280;68840;50.272;12.818;2023-04-28T03:08:05;96017;;;7.0;50.5
77469;BME280;68840;50.272;12.818;2023-04-28T03:10:06;96017;;;7.0;51.2
77469;BME280;68840;50.272;12.818;2023-04-28T03:12:05;96017;;;7.0;50.8
77469;BME280;68840;50.272;12.818;2023-04-28T03:14:05;96016;;;7.0;50.2
77469;BME280;68840;50.272;12.818;2023-04-28T03:16:06;96015;;;7.0;50.6
77469;BME280;68840;50.272;12.818;2023-04-28T03:18:05;96015;;;7.0;51.0
77469;BME280;68840;50.272;12.818;2023-04-28T03:20:07;96013;;;7.0;50.9
77469;BME280;68840;50.272;12.818;2023-04-28T03:22:05;96011;;;7.0;50.9
77469;BME280;68840;50.272;12.818;2023-04-28T03:24:06;96008;;;7.0;50.7
77469;BME280;68840;50.272;12.818;2023-04-28T03:26:06;96010;;;7.0;50.9
77469;BME280;68840;50.272;12.818;2023-04-28T03:28:05;96008;;;7.0;51.1
77469;BME280;68840;50.272;12.818;2023-04-28T03:30:06;96002;;;7.0;50.9
77469;BME280;68840;50.272;12.818;2023-04-28T03:32:05;95999;;;7.0;51.0
77469;BME280;68840;50.272;12.818;2023-04-28T03:34:05;95995;;;7.0;50.8
77469;BME280;68840;50.272;12.818;2023-04-28T03:36:06;95996;;;6.9;51.1
77469;BME280;68840;50.272;12.818;2023-04-28T03:38:05;95995;;;6.9;51.7
77469;BME280;68840;50.272;12.818;2023-04-28T03:40:06;95995;;;6.9;51.5
77469;BME280;68840;50.272;12.818;2023-04-28T03:42:05;95997;;;6.9;51.1
77469;BME280;68840;50.272;12.818;2023-04-28T03:44:05;95995;;;6.9;51.0
77469;BME280;68840;50.272;12.818;2023-04-28T03:46:05;95993;;;6.9;50.9
77469;BME280;68840;50.272;12.818;2023-04-28T03:48:06;95991;;;6.9;51.4
77469;BME280;68840;50.272;12.818;2023-04-28T03:50:06;95988;;;6.9;51.4
77469;BME280;68840;50.272;12.818;2023-04-28T03:52:05;95987;;;6.9;51.0
77469;BME280;68840;50.272;12.818;2023-04-28T03:54:05;95990;;;6.9;50.5
77469;BME280;68840;50.272;12.818;2023-04-28T03:56:05;95993;;;6.8;51.2
77469;BME280;68840;50.272;12.818;2023-04-28T03:58:05;95990;;;6.8;51.9
77469;BME280;68840;50.272;12.818;2023-04-28T04:00:06;95990;;;6.8;52.0
77469;BME280;68840;50.272;12.818;2023-04-28T04:02:05;95989;;;6.8;52.4
77469;BME280;68840;50.272;12.818;2023-04-28T04:04:05;95986;;;6.8;53.0
77469;BME280;68840;50.272;12.818;2023-04-28T04:06:05;95983;;;6.8;53.0
77469;BME280;68840;50.272;12.818;2023-04-28T04:08:05;95985;;;6.8;53.6
77469;BME280;68840;50.272;12.818;2023-04-28T04:10:06;95985;;;6.8;53.3
77469;BME280;68840;50.272;12.818;2023-04-28T04:12:06;95986;;;6.8;53.3
77469;BME280;68840;50.272;12.818;2023-04-28T04:14:06;95987;;;6.8;52.6
77469;BME280;68840;50.272;12.818;2023-04-28T04:16:06;95984;;;6.8;52.5
77469;BME280;68840;50.272;12.818;2023-04-28T04:18:05;95980;;;6.8;51.6
77469;BME280;68840;50.272;12.818;2023-04-28T04:20:07;95975;;;6.8;51.9
77469;BME280;68840;50.272;12.818;2023-04-28T04:22:05;95978;;;6.8;52.0
77469;BME280;68840;50.272;12.818;2023-04-28T04:24:06;95977;;;6.8;51.8
77469;BME280;68840;50.272;12.818;2023-04-28T04:26:05;95968;;;6.8;51.6
77469;BME280;68840;50.272;12.818;2023-04-28T04:28:05;95966;;;6.8;51.8
77469;BME280;68840;50.272;12.818;2023-04-28T04:30:06;95969;;;6.8;51.9
77469;BME280;68840;50.272;12.818;2023-04-28T04:32:05;95975;;;6.8;52.1
77469;BME280;68840;50.272;12.818;2023-04-28T04:34:05;95978;;;6.8;51.9
77469;BME280;68840;50.272;12.818;2023-04-28T04:36:06;95979;;;6.8;51.4
77469;BME280;68840;50.272;12.818;2023-04-28T04:38:06;95981;;;6.8;51.8
77469;BME280;68840;50.272;12.818;2023-04-28T04:40:06;95983;;;6.9;52.2
77469;BME280;68840;50.272;12.818;2023-04-28T04:42:05;95983;;;6.9;52.1
77469;BME280;68840;50.272;12.818;2023-04-28T04:44:05;95981;;;6.9;52.3
77469;BME280;68840;50.272;12.818;2023-04-28T04:46:05;95978;;;6.9;52.1
77469;BME280;68840;50.272;12.818;2023-04-28T04:48:05;95977;;;6.9;52.9
77469;BME280;68840;50.272;12.818;2023-04-28T04:50:06;95976;;;7.0;52.7
77469;BME280;68840;50.272;12.818;2023-04-28T04:52:05;95976;;;7.0;51.9
77469;BME280;68840;50.272;12.818;2023-04-28T04:54:05;95975;;;7.0;52.1
77469;BME280;68840;50.272;12.818;2023-04-28T04:56:05;95977;;;7.0;53.3
77469;BME280;68840;50.272;12.818;2023-04-28T04:58:05;95976;;;7.0;51.9
77469;BME280;68840;50.272;12.818;2023-04-28T05:00:06;95973;;;7.0;51.6
77469;BME280;68840;50.272;12.818;2023-04-28T05:02:05;95968;;;7.0;51.5
77469;BME280;68840;50.272;12.818;2023-04-28T05:04:05;95966;;;7.0;51.6
77469;BME280;68840;50.272;12.818;2023-04-28T05:06:05;95965;;;6.9;52.4
77469;BME280;68840;50.272;12.818;2023-04-28T05:08:05;95965;;;7.0;53.3
77469;BME280;68840;50.272;12.818;2023-04-28T05:10:06;95963;;;7.0;53.5
77469;BME280;68840;50.272;12.818;2023-04-28T05:12:05;95961;;;7.0;53.0
77469;BME280;68840;50.272;12.818;2023-04-28T05:14:05;95958;;;7.0;52.8
77469;BME280;68840;50.272;12.818;2023-04-28T05:16:06;95952;;;7.0;53.2
77469;BME280;68840;50.272;12.818;2023-04-28T05:18:09;95946;;;7.0;52.3
77469;BME280;68840;50.272;12.818;2023-04-28T05:20:06;95946;;;7.1;51.4
77469;BME280;68840;50.272;12.818;2023-04-28T05:22:06;95949;;;7.1;51.8
77469;BME280;68840;50.272;12.818;2023-04-28T05:24:05;95953;;;7.1;52.0
77469;BME280;68840;50.272;12.818;2023-04-28T05:26:06;95950;;;7.1;51.1
77469;BME280;68840;50.272;12.818;2023-04-28T05:28:08;95949;;;7.1;51.0
77469;BME280;68840;50.272;12.818;2023-04-28T05:30:07;95950;;;7.1;51.1
77469;BME280;68840;50.272;12.818;2023-04-28T05:32:05;95953;;;7.1;51.5
77469;BME280;68840;50.272;12.818;2023-04-28T05:34:05;95953;;;7.1;51.6
77469;BME280;68840;50.272;12.818;2023-04-28T05:36:06;95952;;;7.2;51.9
77469;BME280;68840;50.272;12.818;2023-04-28T05:38:05;95949;;;7.2;52.2
77469;BME280;68840;50.272;12.818;2023-04-28T05:40:06;95946;;;7.2;52.3
77469;BME280;68840;50.272;12.818;2023-04-28T05:42:05;95944;;;7.3;52.4
77469;BME280;68840;50.272;12.818;2023-04-28T05:44:05;95947;;;7.3;52.1
77469;BME280;68840;50.272;12.818;2023-04-28T05:46:05;95949;;;7.3;52.3
77469;BME280;68840;50.272;12.818;2023-04-28T05:48:06;95948;;;7.4;52.0
77469;BME280;68840;50.272;12.818;2023-04-28T05:50:06;95942;;;7.4;52.1
77469;BME280;68840;50.272;12.818;2023-04-28T05:52:05;95936;;;7.4;53.0
77469;BME280;68840;50.272;12.818;2023-04-28T05:54:05;95934;;;7.5;52.4
77469;BME280;68840;50.272;12.818;2023-04-28T05:56:06;95932;;;7.5;52.3
77469;BME280;68840;50.272;12.818;2023-04-28T05:58:05;95932;;;7.5;51.5
77469;BME280;68840;50.272;12.818;2023-04-28T06:00:06;95936;;;7.5;51.5
77469;BME280;68840;50.272;12.818;2023-04-28T06:02:05;95933;;;7.5;51.0
77469;BME280;68840;50.272;12.818;2023-04-28T06:04:05;95934;;;7.6;51.6
77469;BME280;68840;50.272;12.818;2023-04-28T06:06:05;95932;;;7.6;51.7
77469;BME280;68840;50.272;12.818;2023-04-28T06:08:06;95935;;;7.6;52.1
77469;BME280;68840;50.272;12.818;2023-04-28T06:10:06;95934;;;7.6;52.5
77469;BME280;68840;50.272;12.818;2023-04-28T06:12:06;95937;;;7.6;52.1
77469;BME280;68840;50.272;12.818;2023-04-28T06:14:05;95945;;;7.6;51.0
77469;BME280;68840;50.272;12.818;2023-04-28T06:16:06;95951;;;7.6;51.9
77469;BME280;68840;50.272;12.818;2023-04-28T06:18:06;95955;;;7.7;51.8
77469;BME280;68840;50.272;12.818;2023-04-28T06:20:06;95953;;;7.7;52.9
77469;BME280;68840;50.272;12.818;2023-04-28T06:22:05;95950;;;7.7;52.3
77469;BME280;68840;50.272;12.818;2023-04-28T06:24:05;95943;;;7.8;51.4
77469;BME280;68840;50.272;12.818;2023-04-28T06:26:05;95935;;;7.8;51.0
77469;BME280;68840;50.272;12.818;2023-04-28T06:28:06;95933;;;7.8;50.8
77469;BME280;68840;50.272;12.818;2023-04-28T06:30:06;95930;;;7.8;51.4
77469;BME280;68840;50.272;12.818;2023-04-28T06:32:05;95928;;;7.8;50.8
77469;BME280;68840;50.272;12.818;2023-04-28T06:34:06;95925;;;7.8;50.9
77469;BME280;68840;50.272;12.818;2023-04-28T06:36:06;95927;;;7.8;50.7
77469;BME280;68840;50.272;12.818;2023-04-28T06:38:05;95927;;;7.9;51.7
77469;BME280;68840;50.272;12.818;2023-04-28T06:40:06;95923;;;7.9;52.1
77469;BME280;68840;50.272;12.818;2023-04-28T06:42:06;95925;;;7.9;51.5
77469;BME280;68840;50.272;12.818;2023-04-28T06:44:05;95930;;;8.0;51.5
77469;BME280;68840;50.272;12.818;2023-04-28T06:46:05;95933;;;8.0;51.2
77469;BME280;68840;50.272;12.818;2023-04-28T06:48:06;95936;;;8.1;50.5
77469;BME280;68840;50.272;12.818;2023-04-28T06:50:06;95937;;;8.1;50.5
77469;BME280;68840;50.272;12.818;2023-04-28T06:52:06;95936;;;8.1;50.7
77469;BME280;68840;50.272;12.818;2023-04-28T06:54:05;95932;;;8.2;50.7
77469;BME280;68840;50.272;12.818;2023-04-28T06:56:06;95931;;;8.2;49.9
77469;BME280;68840;50.272;12.818;2023-04-28T06:58:05;95930;;;8.2;49.7
77469;BME280;68840;50.272;12.818;2023-04-28T07:00:07;95927;;;8.2;50.7
77469;BME280;68840;50.272;12.818;2023-04-28T07:02:05;95927;;;8.3;50.1
77469;BME280;68840;50.272;12.818;2023-04-28T07:04:05;95926;;;8.3;50.3
77469;BME280;68840;50.272;12.818;2023-04-28T07:06:05;95925;;;8.3;49.4
77469;BME280;68840;50.272;12.818;2023-04-28T07:08:05;95923;;;8.3;48.8
77469;BME280;68840;50.272;12.818;2023-04-28T07:10:06;95920;;;8.3;49.8
77469;BME280;68840;50.272;12.818;2023-04-28T07:12:05;95918;;;8.3;49.4
77469;BME280;68840;50.272;12.818;2023-04-28T07:14:07;95915;;;8.3;48.7
77469;BME280;68840;50.272;12.818;2023-04-28T07:16:05;95916;;;8.3;49.6
77469;BME280;68840;50.272;12.818;2023-04-28T07:18:06;95916;;;8.4;49.2
77469;BME280;68840;50.272;12.818;2023-04-28T07:20:06;95914;;;8.4;49.8
77469;BME280;68840;50.272;12.818;2023-04-28T07:22:05;95913;;;8.4;49.1
77469;BME280;68840;50.272;12.818;2023-04-28T07:24:06;95909;;;8.5;50.5
77469;BME280;68840;50.272;12.818;2023-04-28T07:26:05;95904;;;8.5;51.1
77469;BME280;68840;50.272;12.818;2023-04-28T07:28:06;95901;;;8.6;50.4
77469;BME280;68840;50.272;12.818;2023-04-28T07:30:06;95900;;;8.6;52.0
77469;BME280;68840;50.272;12.818;2023-04-28T07:32:07;95896;;;8.7;52.3
77469;BME280;68840;50.272;12.818;2023-04-28T07:34:06;95896;;;8.7;51.3
77469;BME280;68840;50.272;12.818;2023-04-28T07:36:06;95897;;;8.8;52.6
77469;BME280;68840;50.272;12.818;2023-04-28T07:38:05;95897;;;8.8;53.9
77469;BME280;68840;50.272;12.818;2023-04-28T07:40:06;95897;;;8.9;52.8
77469;BME280;68840;50.272;12.818;2023-04-28T07:42:05;95897;;;8.9;52.7
77469;BME280;68840;50.272;12.818;2023-04-28T07:44:07;95895;;;9.0;52.3
77469;BME280;68840;50.272;12.818;2023-04-28T07:46:05;95894;;;9.0;51.7
77469;BME280;68840;50.272;12.818;2023-04-28T07:48:05;95897;;;9.0;51.9
77469;BME280;68840;50.272;12.818;2023-04-28T07:50:06;95901;;;9.0;51.6
77469;BME280;68840;50.272;12.818;2023-04-28T07:52:05;95900;;;9.0;51.8
77469;BME280;68840;50.272;12.818;2023-04-28T07:54:05;95897;;;9.0;52.1
77469;BME280;68840;50.272;12.818;2023-04-28T07:56:06;95895;;;9.1;52.0
77469;BME280;68840;50.272;12.818;2023-04-28T07:58:05;95894;;;9.1;51.7
77469;BME280;68840;50.272;12.818;2023-04-28T08:00:06;95896;;;9.1;52.2
77469;BME280;68840;50.272;12.818;2023-04-28T08:02:06;95895;;;9.1;52.4
77469;BME280;68840;50.272;12.818;2023-04-28T08:04:05;95892;;;9.1;53.0
77469;BME280;68840;50.272;12.818;2023-04-28T08:06:06;95891;;;9.1;52.2
77469;BME280;68840;50.272;12.818;2023-04-28T08:08:05;95886;;;9.1;54.5
77469;BME280;68840;50.272;12.818;2023-04-28T08:10:07;95882;;;9.1;54.2
77469;BME280;68840;50.272;12.818;2023-04-28T08:12:05;95883;;;9.2;52.9
77469;BME280;68840;50.272;12.818;2023-04-28T08:14:05;95887;;;9.2;52.2
77469;BME280;68840;50.272;12.818;2023-04-28T08:16:05;95889;;;9.2;51.5
77469;BME280;68840;50.272;12.818;2023-04-28T08:18:06;95891;;;9.2;51.2
77469;BME280;68840;50.272;12.818;2023-04-28T08:20:06;95891;;;9.2;51.3
77469;BME280;68840;50.272;12.818;2023-04-28T08:22:06;95890;;;9.2;50.6
77469;BME280;68840;50.272;12.818;2023-04-28T08:24:07;95887;;;9.2;50.8
77469;BME280;68840;50.272;12.818;2023-04-28T08:26:05;95882;;;9.2;51.0
77469;BME280;68840;50.272;12.818;2023-04-28T08:28:07;95882;;;9.1;51.2
77469;BME280;68840;50.272;12.818;2023-04-28T08:30:06;95880;;;9.1;51.7
77469;BME280;68840;50.272;12.818;2023-04-28T08:32:05;95884;;;9.1;51.9
77469;BME280;68840;50.272;12.818;2023-04-28T08:34:05;95883;;;9.1;53.6
77469;BME280;68840;50.272;12.818;2023-04-28T08:36:06;95879;;;9.1;53.9
77469;BME280;68840;50.272;12.818;2023-04-28T08:38:06;95880;;;9.1;54.2
77469;BME280;68840;50.272;12.818;2023-04-28T08:40:08;95882;;;9.1;54.8
77469;BME280;68840;50.272;12.818;2023-04-28T08:42:05;95885;;;9.1;55.0
77469;BME280;68840;50.272;12.818;2023-04-28T08:44:07;95888;;;9.1;55.4
77469;BME280;68840;50.272;12.818;2023-04-28T08:46:07;95891;;;9.0;55.4
77469;BME280;68840;50.272;12.818;2023-04-28T08:48:10;95892;;;9.0;55.3
77469;BME280;68840;50.272;12.818;2023-04-28T08:50:07;95891;;;9.0;56.1
77469;BME280;68840;50.272;12.818;2023-04-28T08:52:10;95894;;;9.0;57.3
77469;BME280;68840;50.272;12.818;2023-04-28T08:54:07;95895;;;8.9;57.3
77469;BME280;68840;50.272;12.818;2023-04-28T08:56:06;95896;;;8.9;56.9
77469;BME280;68840;50.272;12.818;2023-04-28T08:58:07;95899;;;8.9;57.7
77469;BME280;68840;50.272;12.818;2023-04-28T09:00:06;95900;;;8.9;58.3
77469;BME280;68840;50.272;12.818;2023-04-28T09:02:06;95900;;;8.9;58.9
77469;BME280;68840;50.272;12.818;2023-04-28T09:04:05;95902;;;8.9;59.8
77469;BME280;68840;50.272;12.818;2023-04-28T09:06:05;95904;;;8.9;58.9
77469;BME280;68840;50.272;12.818;2023-04-28T09:08:05;95901;;;8.9;59.6
77469;BME280;68840;50.272;12.818;2023-04-28T09:10:16;95900;;;8.9;59.0
77469;BME280;68840;50.272;12.818;2023-04-28T09:12:06;95898;;;8.9;58.1
77469;BME280;68840;50.272;12.818;2023-04-28T09:14:11;95897;;;8.9;58.1
77469;BME280;68840;50.272;12.818;2023-04-28T09:16:06;95898;;;8.9;58.8
77469;BME280;68840;50.272;12.818;2023-04-28T09:18:07;95900;;;8.8;59.5
77469;BME280;68840;50.272;12.818;2023-04-28T09:20:19;95904;;;8.8;59.5
77469;BME280;68840;50.272;12.818;2023-04-28T09:22:06;95904;;;8.9;59.5
77469;BME280;68840;50.272;12.818;2023-04-28T09:24:06;95902;;;8.9;60.1
77469;BME280;68840;50.272;12.818;2023-04-28T09:26:07;95897;;;8.9;59.6
77469;BME280;68840;50.272;12.818;2023-04-28T09:28:18;95897;;;8.9;61.3
77469;BME280;68840;50.272;12.818;2023-04-28T09:30:06;95898;;;8.9;61.2
77469;BME280;68840;50.272;12.818;2023-04-28T09:32:14;95900;;;8.9;61.2
77469;BME280;68840;50.272;12.818;2023-04-28T09:34:06;95901;;;8.9;60.9
77469;BME280;68840;50.272;12.818;2023-04-28T09:36:05;95902;;;8.9;60.9
77469;BME280;68840;50.272;12.818;2023-04-28T09:38:05;95899;;;8.8;61.2
77469;BME280;68840;50.272;12.818;2023-04-28T09:40:07;95892;;;8.8;61.7
77469;BME280;68840;50.272;12.818;2023-04-28T09:42:05;95890;;;8.8;63.1
77469;BME280;68840;50.272;12.818;2023-04-28T09:44:10;95890;;;8.8;62.3
77469;BME280;68840;50.272;12.818;2023-04-28T09:46:05;95889;;;8.8;62.7
77469;BME280;68840;50.272;12.818;2023-04-28T09:48:09;95892;;;8.8;63.0
77469;BME280;68840;50.272;12.818;2023-04-28T09:50:09;95894;;;8.7;64.1
77469;BME280;68840;50.272;12.818;2023-04-28T09:52:12;95891;;;8.7;64.3
77469;BME280;68840;50.272;12.818;2023-04-28T09:54:07;95887;;;8.7;63.9
77469;BME280;68840;50.272;12.818;2023-04-28T09:56:06;95884;;;8.7;63.6
77469;BME280;68840;50.272;12.818;2023-04-28T09:58:06;95884;;;8.7;64.5
77469;BME280;68840;50.272;12.818;2023-04-28T10:00:08;95885;;;8.6;64.5
77469;BME280;68840;50.272;12.818;2023-04-28T10:02:05;95886;;;8.6;64.9
77469;BME280;68840;50.272;12.818;2023-04-28T10:04:06;95884;;;8.6;66.9
77469;BME280;68840;50.272;12.818;2023-04-28T10:06:06;95883;;;8.7;65.6
77469;BME280;68840;50.272;12.818;2023-04-28T10:08:06;95882;;;8.6;66.9
77469;BME280;68840;50.272;12.818;2023-04-28T10:10:06;95880;;;8.7;66.8
77469;BME280;68840;50.272;12.818;2023-04-28T10:12:05;95877;;;8.7;66.9
77469;BME280;68840;50.272;12.818;2023-04-28T10:14:05;95875;;;8.7;66.6
77469;BME280;68840;50.272;12.818;2023-04-28T10:16:07;95875;;;8.7;67.0
77469;BME280;68840;50.272;12.818;2023-04-28T10:18:06;95876;;;8.7;66.0
77469;BME280;68840;50.272;12.818;2023-04-28T10:20:07;95876;;;8.7;67.4
77469;BME280;68840;50.272;12.818;2023-04-28T10:22:16;95874;;;8.8;68.7
77469;BME280;68840;50.272;12.818;2023-04-28T10:24:09;95874;;;8.8;68.2
77469;BME280;68840;50.272;12.818;2023-04-28T10:26:13;95869;;;8.8;68.8
77469;BME280;68840;50.272;12.818;2023-04-28T10:28:08;95866;;;8.8;69.7
77469;BME280;68840;50.272;12.818;2023-04-28T10:30:10;95861;;;8.8;69.6
77469;BME280;68840;50.272;12.818;2023-04-28T10:32:17;95858;;;8.9;69.4
77469;BME280;68840;50.272;12.818;2023-04-28T10:34:20;95856;;;8.9;68.6
77469;BME280;68840;50.272;12.818;2023-04-28T10:36:06;95850;;;8.9;69.9
77469;BME280;68840;50.272;12.818;2023-04-28T10:38:08;95849;;;9.0;67.9
77469;BME280;68840;50.272;12.818;2023-04-28T10:40:31;95849;;;9.0;69.9
77469;BME280;68840;50.272;12.818;2023-04-28T10:46:07;95849;;;9.1;68.3
77469;BME280;68840;50.272;12.818;2023-04-28T10:48:05;95850;;;9.2;67.2
77469;BME280;68840;50.272;12.818;2023-04-28T10:50:06;95850;;;9.2;67.5
77469;BME280;68840;50.272;12.818;2023-04-28T10:54:08;95853;;;9.2;68.1
77469;BME280;68840;50.272;12.818;2023-04-28T10:56:05;95852;;;9.2;69.5
77469;BME280;68840;50.272;12.818;2023-04-28T10:58:31;95849;;;9.1;69.4
77469;BME280;68840;50.272;12.818;2023-04-28T11:00:31;95848;;;9.2;69.3
77469;BME280;68840;50.272;12.818;2023-04-28T11:04:09;95840;;;9.2;70.2
77469;BME280;68840;50.272;12.818;2023-04-28T11:06:16;95837;;;9.1;70.2
77469;BME280;68840;50.272;12.818;2023-04-28T11:08:33;95833;;;9.1;70.7
77469;BME280;68840;50.272;12.818;2023-04-28T11:10:06;95831;;;9.1;71.1
77469;BME280;68840;50.272;12.818;2023-04-28T11:12:05;95833;;;9.1;71.7
77469;BME280;68840;50.272;12.818;2023-04-28T11:14:31;95832;;;9.2;72.2
77469;BME280;68840;50.272;12.818;2023-04-28T11:16:06;95833;;;9.2;72.1
77469;BME280;68840;50.272;12.818;2023-04-28T11:18:09;95829;;;9.3;72.6
77469;BME280;68840;50.272;12.818;2023-04-28T11:20:11;95825;;;9.3;72.9
77469;BME280;68840;50.272;12.818;2023-04-28T11:22:14;95822;;;9.4;72.9
77469;BME280;68840;50.272;12.818;2023-04-28T11:24:09;95816;;;9.4;73.0
77469;BME280;68840;50.272;12.818;2023-04-28T11:26:05;95810;;;9.5;71.9
77469;BME280;68840;50.272;12.818;2023-04-28T11:28:07;95798;;;9.5;71.4